Pagina principale
METAR-TAF:

METAR-TAF

Aeroporti :

Rasht, Iran

latitudine: 37-12N, longitudine: 049-38E, altezza: -7 m

Osservazione

Il bollettino è stato emesso 1 ora e 10 minuti fa, alle 22:00 UTC
Vento calmo
Temperature 23°C
Umidità 100%
Pressione 1005 hPa
Visibilità: 8000 m

METAR: OIGG 162200Z 00000KT 8000 NSC 23/23 Q1005

Ora: 03:40 (23:10 UTC)


TAF: mancante

Osservazioni e previsioni meteorologiche di più di 4000 aeroporti (messaggi METAR e TAF).

Le stazioni disponibili sono rappresentate dai dischi gialli e rossi sulla carta.

Puntare il mouse per vedere il nome della stazione.

Clicca sopra per visualizzare le osservazioni e previsioni meteorologiche.

Per cambiare la mappa : fare clic sui pulsanti verdi con una croce nera per ingrandire, il pulsante verde con un trattino per diminuire, o sulla freccia verde per le mappe adiacenti.


METAR-TAF: